Time;durP1;ratioP1;P1;durP2;ratioP2;P2;SDS_P1;SDS_P2;PMS_P1;PMS_P2;Temp;Humidity;BMP_temperature;BMP_pressure;BME280_temperature;BME280_humidity;BME280_pressure;Samples;Min_cycle;Max_cycle;Signal;HPM_P1;HPM_P2
2022/05/28 00:00:12;;;;;;;9.90;1.88;;;;;;;11.23;80.88;102351.94;5057025;28;20132;-72
2022/05/28 00:02:38;;;;;;;11.98;2.53;;;;;;;11.26;80.98;102354.41;5056899;28;20484;-72
2022/05/28 00:05:04;;;;;;;18.33;3.13;;;;;;;11.34;80.98;102348.53;5056805;28;20037;-72
2022/05/28 00:07:29;;;;;;;13.45;2.20;;;;;;;11.38;80.63;102349.19;5057055;28;20083;-72
2022/05/28 00:09:55;;;;;;;13.70;3.15;;;;;;;11.50;79.75;102347.47;5056684;28;20461;-72
2022/05/28 00:12:25;;;;;;;12.52;2.17;;;;;;;11.57;79.22;102349.59;5056736;28;20036;-72
2022/05/28 00:14:50;;;;;;;10.45;1.88;;;;;;;11.57;79.48;102346.91;5056864;28;20064;-72
2022/05/28 00:17:15;;;;;;;10.20;2.35;;;;;;;11.55;79.54;102343.50;5055235;28;20040;-72
2022/05/28 00:19:41;;;;;;;13.32;2.17;;;;;;;11.53;79.84;102341.91;5056419;28;20060;-72
2022/05/28 00:22:07;;;;;;;20.90;3.13;;;;;;;11.49;80.28;102343.94;5056755;28;20065;-72
2022/05/28 00:24:32;;;;;;;12.68;2.10;;;;;;;11.43;80.87;102337.22;5056473;28;20108;-74
2022/05/28 00:26:58;;;;;;;10.57;2.08;;;;;;;11.39;81.22;102330.41;5056993;28;20434;-73
2022/05/28 00:29:23;;;;;;;13.00;2.42;;;;;;;11.32;81.73;102334.47;5056695;28;20112;-74
2022/05/28 00:31:49;;;;;;;13.82;2.42;;;;;;;11.25;81.89;102327.84;5056234;28;20107;-72
2022/05/28 00:34:14;;;;;;;16.50;2.13;;;;;;;11.22;82.72;102350.22;5055098;28;20091;-73
2022/05/28 00:36:40;;;;;;;15.38;2.17;;;;;;;11.18;82.84;102331.91;5056253;28;20033;-73
2022/05/28 00:39:06;;;;;;;16.20;2.42;;;;;;;11.18;82.95;102338.09;5055999;28;20069;-74
2022/05/28 00:41:34;;;;;;;14.27;2.10;;;;;;;11.16;83.03;102342.66;5056051;28;20499;-74
2022/05/28 00:43:59;;;;;;;15.48;2.60;;;;;;;11.14;83.36;102346.38;5056245;28;20040;-72
2022/05/28 00:46:26;;;;;;;14.52;2.13;;;;;;;11.11;83.39;102339.47;5056112;28;20039;-73
2022/05/28 00:48:57;;;;;;;19.42;2.90;;;;;;;11.06;84.08;102339.81;5056126;28;20068;-72
2022/05/28 00:51:29;;;;;;;12.63;2.08;;;;;;;11.04;84.57;102343.53;5056424;28;20028;-73
2022/05/28 00:54:00;;;;;;;9.98;2.05;;;;;;;11.04;85.28;102343.53;5055289;28;20054;-73
2022/05/28 00:56:27;;;;;;;24.27;2.83;;;;;;;11.04;85.60;102340.84;5056504;28;20480;-73
2022/05/28 00:58:53;;;;;;;17.05;2.53;;;;;;;11.02;85.94;102338.31;5055612;28;20021;-72
2022/05/28 01:01:25;;;;;;;8.93;1.98;;;;;;;10.96;86.41;102337.84;5055745;28;20116;-73
2022/05/28 01:04:28;;;;;;;16.55;2.38;;;;;;;10.89;87.13;102342.75;5056449;28;20032;-72
2022/05/28 01:07:18;;;;;;;19.85;2.90;;;;;;;10.81;87.99;102334.44;5056174;28;20457;-73
2022/05/28 01:10:02;;;;;;;34.65;2.80;;;;;;;10.75;88.74;102338.38;5055772;28;20112;-72
2022/05/28 01:12:47;;;;;;;18.58;2.53;;;;;;;10.72;89.57;102335.94;5056601;28;20377;-73
2022/05/28 01:15:23;;;;;;;17.55;2.50;;;;;;;10.70;89.70;102336.03;5056461;28;20021;-73
2022/05/28 01:17:53;;;;;;;10.10;2.53;;;;;;;10.65;90.46;102340.78;5056539;28;20469;-73
2022/05/28 01:20:26;;;;;;;25.10;2.78;;;;;;;10.59;90.54;102330.56;5059722;28;20025;-73
2022/05/28 01:23:20;;;;;;;22.42;3.30;;;;;;;10.58;91.21;102335.03;5058551;28;20033;-73
2022/05/28 01:26:18;;;;;;;19.70;3.35;;;;;;;10.51;91.21;102339.06;5055329;28;20052;-74
2022/05/28 01:28:48;;;;;;;17.13;2.50;;;;;;;10.46;91.28;102333.19;5055445;28;20533;-74
2022/05/28 01:31:16;;;;;;;21.45;2.78;;;;;;;10.46;91.15;102338.50;5055420;28;20143;-73
2022/05/28 01:33:43;;;;;;;14.18;2.35;;;;;;;10.41;90.96;102337.97;5055025;28;20037;-72
2022/05/28 01:36:11;;;;;;;21.45;3.08;;;;;;;10.39;91.11;102337.22;5054680;28;20040;-72
2022/05/28 01:38:38;;;;;;;18.35;2.65;;;;;;;10.32;91.24;102334.06;5054837;28;20111;-73
2022/05/28 01:41:06;;;;;;;21.13;2.97;;;;;;;10.29;91.68;102334.28;5054755;28;20461;-72
2022/05/28 01:43:37;;;;;;;16.58;2.53;;;;;;;10.24;91.92;102329.25;5055196;28;20142;-73
2022/05/28 01:46:05;;;;;;;19.25;3.00;;;;;;;10.26;92.05;102328.31;5055584;28;20107;-72
2022/05/28 01:48:31;;;;;;;24.98;3.17;;;;;;;10.24;92.14;102331.06;5054013;28;20024;-72
2022/05/28 01:50:58;;;;;;;15.48;2.78;;;;;;;10.21;92.09;102329.47;5054107;28;20082;-72
2022/05/28 01:56:10;;;;;;;17.10;2.25;;;;;;;10.12;92.25;102334.50;5055264;28;20048;-72
2022/05/28 01:58:36;;;;;;;22.98;2.85;;;;;;;10.11;92.52;102332.81;5054741;28;20029;-72
2022/05/28 02:01:03;;;;;;;13.98;1.95;;;;;;;10.09;92.35;102332.94;5054599;28;20029;-72
2022/05/28 02:03:32;;;;;;;16.83;3.22;;;;;;;10.11;92.41;102338.97;5054821;28;20032;-71
2022/05/28 02:05:57;;;;;;;12.10;1.95;;;;;;;10.14;92.37;102338.78;5054630;28;20068;-74
2022/05/28 02:08:23;;;;;;;18.73;2.65;;;;;;;10.13;92.54;102337.06;5054228;28;20138;-73
2022/05/28 02:11:11;;;;;;;15.50;2.58;;;;;;;10.17;92.41;102343.91;5054467;28;20141;-74
2022/05/28 02:13:54;;;;;;;12.70;2.55;;;;;;;10.12;92.01;102338.03;5054070;28;20110;-71
2022/05/28 02:16:32;;;;;;;15.43;2.88;;;;;;;10.15;91.46;102337.84;5054573;28;20482;-72
2022/05/28 02:19:01;;;;;;;17.30;3.50;;;;;;;10.17;91.27;102327.94;5054913;28;20031;-72
2022/05/28 02:21:29;;;;;;;28.80;3.08;;;;;;;10.16;90.95;102333.38;5054387;28;20036;-72
2022/05/28 02:24:03;;;;;;;19.85;3.13;;;;;;;10.12;90.75;102331.84;5053871;28;20116;-72
2022/05/28 02:26:51;;;;;;;11.27;2.03;;;;;;;10.11;90.18;102333.66;5053210;28;20384;-72
2022/05/28 02:29:17;;;;;;;19.10;2.65;;;;;;;10.10;89.89;102331.09;5053532;28;20123;-72
2022/05/28 02:31:46;;;;;;;16.98;2.95;;;;;;;10.06;89.53;102328.66;5054324;28;20178;-72
2022/05/28 02:34:12;;;;;;;18.83;2.83;;;;;;;10.02;89.41;102320.97;5054548;28;20067;-72
2022/05/28 02:36:39;;;;;;;12.90;2.25;;;;;;;10.01;89.31;102324.56;5054066;28;20029;-73
2022/05/28 02:39:04;;;;;;;14.70;1.85;;;;;;;9.98;89.51;102322.97;5053749;28;20033;-74
2022/05/28 02:41:30;;;;;;;7.50;2.10;;;;;;;9.98;88.84;102328.28;5054075;28;20412;-71
2022/05/28 02:43:55;;;;;;;12.38;2.05;;;;;;;9.95;89.15;102325.81;5053099;28;20124;-71
2022/05/28 02:46:21;;;;;;;25.80;2.75;;;;;;;9.94;89.54;102324.13;5053817;28;20064;-73
2022/05/28 02:48:46;;;;;;;14.60;2.35;;;;;;;9.89;89.53;102319.09;5053884;28;20048;-73
2022/05/28 02:51:16;;;;;;;15.45;2.00;;;;;;;9.89;89.40;102327.06;5052558;28;20110;-73
2022/05/28 02:53:41;;;;;;;13.07;1.80;;;;;;;9.88;89.27;102316.53;5053769;28;20039;-73
2022/05/28 02:56:08;;;;;;;12.00;2.03;;;;;;;9.87;88.74;102323.66;5053864;28;20116;-73
2022/05/28 02:58:34;;;;;;;7.25;1.63;;;;;;;9.89;88.15;102319.09;5053497;28;20057;-74
2022/05/28 03:01:01;;;;;;;12.98;2.47;;;;;;;9.91;87.10;102315.47;5053191;28;20464;-73
2022/05/28 03:03:26;;;;;;;9.45;1.63;;;;;;;9.91;86.25;102326.97;5053410;28;20057;-73
2022/05/28 03:05:52;;;;;;;9.13;1.90;;;;;;;9.87;85.98;102325.47;5053245;28;20059;-74
2022/05/28 03:08:18;;;;;;;13.20;1.70;;;;;;;9.86;85.83;102321.94;5053788;28;20373;-73
2022/05/28 03:10:45;;;;;;;8.00;1.45;;;;;;;9.86;84.86;102326.41;5052602;28;20037;-72
2022/05/28 03:13:11;;;;;;;8.95;1.77;;;;;;;9.85;84.43;102330.88;5053235;28;20382;-73
2022/05/28 03:15:37;;;;;;;15.27;2.80;;;;;;;9.85;84.67;102333.53;5053503;28;20124;-72
2022/05/28 03:18:03;;;;;;;9.88;1.80;;;;;;;9.86;83.99;102332.56;5053318;28;20380;-73
2022/05/28 03:20:29;;;;;;;11.02;1.70;;;;;;;9.84;83.82;102336.31;5053399;28;20069;-73
2022/05/28 03:22:55;;;;;;;11.75;1.50;;;;;;;9.80;83.42;102329.47;5053436;28;20531;-72
2022/05/28 03:25:21;;;;;;;5.95;1.50;;;;;;;9.78;83.69;102332.22;5053351;28;20029;-72
2022/05/28 03:27:46;;;;;;;7.88;1.55;;;;;;;9.75;84.21;102332.41;5052983;28;20079;-75
2022/05/28 03:30:13;;;;;;;10.63;1.48;;;;;;;9.70;84.42;102340.69;5053728;28;20033;-71
2022/05/28 03:32:38;;;;;;;8.77;1.50;;;;;;;9.64;84.58;102346.41;5053232;28;20025;-73
2022/05/28 03:35:04;;;;;;;9.02;1.30;;;;;;;9.61;84.53;102346.56;5053489;28;20029;-74
2022/05/28 03:37:29;;;;;;;5.78;1.50;;;;;;;9.66;82.84;102346.28;5052897;28;20041;-71
2022/05/28 03:39:55;;;;;;;9.35;1.13;;;;;;;9.67;82.58;102346.19;5053087;28;20064;-71
2022/05/28 03:42:20;;;;;;;11.52;1.77;;;;;;;9.66;82.39;102348.94;5053179;28;20476;-71
2022/05/28 03:44:46;;;;;;;9.73;1.35;;;;;;;9.60;82.06;102347.53;5053470;28;20037;-72
2022/05/28 03:47:11;;;;;;;7.75;1.65;;;;;;;9.54;82.09;102342.59;5053393;28;20076;-72
2022/05/28 03:49:39;;;;;;;9.05;1.40;;;;;;;9.47;82.30;102339.44;5053335;28;20167;-74
2022/05/28 03:52:05;;;;;;;3.95;1.13;;;;;;;9.45;81.84;102345.81;5053017;28;20033;-74
2022/05/28 03:54:31;;;;;;;10.27;1.55;;;;;;;9.43;81.43;102343.25;5052725;28;20481;-72
2022/05/28 03:57:06;;;;;;;14.25;1.70;;;;;;;9.44;81.09;102344.13;5053106;28;20044;-74
2022/05/28 03:59:34;;;;;;;8.55;1.52;;;;;;;9.45;81.10;102338.72;5052969;28;20044;-72
2022/05/28 04:02:00;;;;;;;6.78;1.27;;;;;;;9.49;81.00;102344.66;5052918;28;20029;-72
2022/05/28 04:04:26;;;;;;;7.65;1.20;;;;;;;9.52;81.43;102342.69;5053028;28;20565;-71
2022/05/28 04:06:51;;;;;;;4.05;1.10;;;;;;;9.60;81.77;102352.84;5052056;28;20053;-72
2022/05/28 04:09:16;;;;;;;7.20;1.25;;;;;;;9.76;81.62;102351.88;5052557;28;20033;-74
2022/05/28 04:11:42;;;;;;;10.75;1.30;;;;;;;9.90;80.75;102349.19;5052437;28;20033;-73
2022/05/28 04:14:07;;;;;;;17.83;1.40;;;;;;;9.99;80.40;102353.94;5051940;28;20067;-73
2022/05/28 04:16:33;;;;;;;6.68;1.17;;;;;;;10.06;79.55;102349.06;5051596;28;20455;-72
2022/05/28 04:18:58;;;;;;;13.38;1.75;;;;;;;10.09;77.56;102353.31;5053357;28;20044;-72
2022/05/28 04:21:24;;;;;;;12.30;1.60;;;;;;;10.06;77.25;102359.69;5052792;28;20024;-73
2022/05/28 04:23:49;;;;;;;7.43;1.55;;;;;;;10.02;77.84;102352.88;5052807;28;20098;-73
2022/05/28 04:26:15;;;;;;;7.60;1.23;;;;;;;9.97;77.69;102361.16;5052673;28;20032;-71
2022/05/28 04:28:40;;;;;;;4.32;1.25;;;;;;;9.94;77.93;102366.66;5052553;28;20120;-72
2022/05/28 04:31:06;;;;;;;12.55;1.48;;;;;;;9.97;77.76;102365.59;5052930;28;20032;-74
2022/05/28 04:33:31;;;;;;;7.00;1.50;;;;;;;10.04;78.53;102369.59;5053267;28;20087;-73
2022/05/28 04:35:56;;;;;;;11.68;1.55;;;;;;;10.07;78.30;102378.19;5053451;28;20029;-73
2022/05/28 04:38:23;;;;;;;6.85;1.23;;;;;;;10.08;77.84;102376.41;5056298;28;20507;-74
2022/05/28 04:40:49;;;;;;;4.90;1.20;;;;;;;10.06;77.88;102367.66;5054706;28;20053;-73
2022/05/28 04:43:14;;;;;;;7.65;1.58;;;;;;;10.08;77.83;102363.13;5055819;28;20396;-71
2022/05/28 04:45:39;;;;;;;6.50;1.38;;;;;;;10.11;77.86;102370.91;5055959;28;20032;-74
2022/05/28 04:48:05;;;;;;;6.38;1.50;;;;;;;10.27;77.56;102362.78;5055005;28;20118;-74
2022/05/28 04:50:31;;;;;;;10.32;1.75;;;;;;;10.44;75.83;102375.00;5056229;28;20029;-72
2022/05/28 04:52:56;;;;;;;7.88;1.40;;;;;;;10.50;75.16;102369.28;5054892;28;20060;-73
2022/05/28 04:55:22;;;;;;;7.90;1.83;;;;;;;10.45;75.16;102375.84;5055275;28;20377;-73
2022/05/28 04:57:48;;;;;;;4.50;1.48;;;;;;;10.34;76.04;102380.06;5055702;28;20159;-73
2022/05/28 05:00:17;;;;;;;9.25;2.55;;;;;;;10.30;75.93;102377.69;5055836;28;20036;-72
2022/05/28 05:02:42;;;;;;;10.55;1.92;;;;;;;10.25;76.22;102375.31;5055870;28;20029;-73
2022/05/28 05:05:08;;;;;;;6.22;1.25;;;;;;;10.20;76.80;102372.97;5055682;28;20086;-74
2022/05/28 05:07:34;;;;;;;14.13;1.40;;;;;;;10.18;77.13;102374.00;5054940;28;20033;-73
2022/05/28 05:09:59;;;;;;;5.68;1.48;;;;;;;10.16;76.30;102384.75;5055691;28;20035;-73
2022/05/28 05:12:25;;;;;;;8.90;1.33;;;;;;;10.17;75.00;102377.63;5055864;28;20451;-73
2022/05/28 05:14:50;;;;;;;12.25;1.52;;;;;;;10.20;74.35;102378.28;5056265;28;20029;-74
2022/05/28 05:17:16;;;;;;;7.97;1.17;;;;;;;10.22;73.98;102391.47;5055533;28;20090;-74
2022/05/28 05:19:41;;;;;;;7.25;1.02;;;;;;;10.22;73.28;102387.00;5055435;28;20461;-71
2022/05/28 05:22:07;;;;;;;10.00;1.90;;;;;;;10.21;73.67;102390.63;5055270;28;20036;-72
2022/05/28 05:24:33;;;;;;;3.25;1.23;;;;;;;10.20;73.83;102391.59;5055817;28;20044;-71
2022/05/28 05:27:02;;;;;;;6.70;1.63;;;;;;;10.24;73.73;102400.25;5055775;28;20033;-74
2022/05/28 05:29:28;;;;;;;9.60;1.45;;;;;;;10.26;73.22;102389.50;5055403;28;20029;-74
2022/05/28 05:31:53;;;;;;;13.00;1.80;;;;;;;10.29;73.67;102398.13;5055786;28;20036;-72
2022/05/28 05:34:18;;;;;;;4.55;1.27;;;;;;;10.35;74.01;102397.75;5054033;28;20036;-71
2022/05/28 05:36:44;;;;;;;7.45;1.50;;;;;;;10.46;74.30;102398.88;5055399;28;20445;-72
2022/05/28 05:39:09;;;;;;;10.48;1.35;;;;;;;10.50;74.47;102403.88;5055369;28;20040;-72
2022/05/28 05:41:42;;;;;;;9.57;1.70;;;;;;;10.47;75.13;102398.75;5055855;28;20045;-72
2022/05/28 05:44:09;;;;;;;11.18;1.65;;;;;;;10.49;75.53;102409.31;5055049;28;20432;-73
2022/05/28 05:46:35;;;;;;;7.72;1.67;;;;;;;10.57;75.93;102404.34;5054954;28;20025;-74
2022/05/28 05:49:01;;;;;;;8.38;1.20;;;;;;;10.75;74.76;102395.13;5053634;28;20041;-73
2022/05/28 05:51:28;;;;;;;12.15;2.53;;;;;;;11.02;74.15;102398.72;5055132;28;20033;-73
2022/05/28 05:53:53;;;;;;;12.32;1.88;;;;;;;11.35;73.69;102402.69;5054811;28;20053;-72
2022/05/28 05:56:19;;;;;;;6.13;1.67;;;;;;;11.62;71.32;102414.09;5054652;28;20465;-72
2022/05/28 05:58:44;;;;;;;9.02;1.60;;;;;;;11.86;70.51;102399.97;5055257;28;20029;-73
2022/05/28 06:01:09;;;;;;;4.57;1.30;;;;;;;12.06;69.06;102413.72;5055008;28;20083;-72
2022/05/28 06:03:35;;;;;;;3.72;1.20;;;;;;;12.21;67.96;102417.97;5054686;28;20389;-73
2022/05/28 06:06:04;;;;;;;12.85;2.35;;;;;;;12.22;66.54;102413.50;5055400;28;20032;-72
2022/05/28 06:08:30;;;;;;;10.82;1.20;;;;;;;12.21;66.73;102419.78;5054463;28;20108;-73
2022/05/28 06:10:56;;;;;;;6.53;1.23;;;;;;;12.30;67.00;102421.78;5053125;28;20048;-72
2022/05/28 06:13:22;;;;;;;13.43;1.30;;;;;;;12.47;67.56;102417.88;5053556;28;20033;-73
2022/05/28 06:15:48;;;;;;;7.43;1.95;;;;;;;12.48;67.16;102419.56;5054518;28;20065;-73
2022/05/28 06:18:15;;;;;;;9.70;1.73;;;;;;;12.40;67.53;102421.97;5054383;28;20461;-72
2022/05/28 06:20:40;;;;;;;4.88;1.38;;;;;;;12.39;67.68;102429.13;5054109;28;20499;-73
2022/05/28 06:23:06;;;;;;;9.80;1.67;;;;;;;12.24;67.51;102430.22;5054277;28;20037;-72
2022/05/28 06:25:31;;;;;;;8.55;1.90;;;;;;;12.17;67.58;102429.84;5054378;28;20033;-72
2022/05/28 06:27:57;;;;;;;11.80;1.83;;;;;;;12.23;67.76;102434.72;5054271;28;20037;-72
2022/05/28 06:30:23;;;;;;;11.85;1.42;;;;;;;12.26;66.63;102423.81;5054585;28;20119;-72
2022/05/28 06:32:48;;;;;;;7.70;1.52;;;;;;;12.39;66.13;102425.59;5054074;28;20116;-72
2022/05/28 06:35:13;;;;;;;7.15;1.55;;;;;;;12.54;65.25;102427.16;5053849;28;20040;-72
2022/05/28 06:37:39;;;;;;;7.70;1.35;;;;;;;12.50;65.69;102431.00;5054097;28;20389;-73
2022/05/28 06:40:05;;;;;;;5.95;1.58;;;;;;;12.49;65.48;102434.63;5054343;28;20052;-73
2022/05/28 06:42:30;;;;;;;18.25;2.97;;;;;;;12.67;65.50;102435.09;5054158;28;20029;-73
2022/05/28 06:44:56;;;;;;;11.23;1.80;;;;;;;12.92;65.06;102442.13;5054052;28;20052;-73
2022/05/28 06:47:22;;;;;;;7.68;1.52;;;;;;;13.14;63.82;102438.69;5052354;28;20045;-73
2022/05/28 06:51:01;;;;;;;9.93;1.80;;;;;;;13.12;63.98;102434.41;5054140;28;20045;-71
2022/05/28 06:52:33;;;;;;;8.77;1.45;;;;;;;12.86;64.04;102450.59;5053521;28;20048;-72
2022/05/28 06:54:58;;;;;;;8.90;2.17;;;;;;;12.60;64.86;102447.19;5054822;28;20037;-72
2022/05/28 06:57:23;;;;;;;11.93;2.17;;;;;;;12.73;65.56;102445.31;5055057;28;20060;-72
2022/05/28 06:59:49;;;;;;;10.50;1.67;;;;;;;12.98;64.89;102444.34;5054785;28;20361;-72
2022/05/28 07:02:14;;;;;;;12.23;2.10;;;;;;;13.17;63.74;102443.78;5053962;28;20037;-72
2022/05/28 07:04:39;;;;;;;12.82;1.75;;;;;;;13.19;63.33;102452.53;5053630;28;20028;-72
2022/05/28 07:07:05;;;;;;;8.25;2.00;;;;;;;13.24;63.87;102446.84;5053857;28;20033;-72
2022/05/28 07:09:30;;;;;;;11.27;1.90;;;;;;;13.17;61.96;102448.28;5053442;28;20033;-73
2022/05/28 07:11:56;;;;;;;11.35;1.70;;;;;;;13.24;62.75;102444.16;5052406;28;20124;-71
2022/05/28 07:14:22;;;;;;;10.10;1.52;;;;;;;13.16;61.74;102449.25;5053075;28;20033;-73
2022/05/28 07:16:47;;;;;;;7.05;1.48;;;;;;;13.07;60.41;102455.31;5054014;28;20059;-72
2022/05/28 07:19:13;;;;;;;9.88;1.60;;;;;;;13.02;60.18;102455.66;5053372;28;20033;-73
2022/05/28 07:21:38;;;;;;;16.20;1.90;;;;;;;13.18;60.61;102456.19;5053410;28;20025;-72
2022/05/28 07:24:04;;;;;;;14.90;2.35;;;;;;;13.46;59.93;102450.56;5053370;28;20036;-72
2022/05/28 07:26:29;;;;;;;9.63;1.92;;;;;;;13.55;58.47;102445.38;5052025;28;20489;-72
2022/05/28 07:28:55;;;;;;;11.27;1.77;;;;;;;13.33;59.20;102464.88;5053239;28;20029;-72
2022/05/28 07:31:21;;;;;;;13.95;1.75;;;;;;;13.15;59.30;102471.59;5053284;28;20044;-72
2022/05/28 07:33:47;;;;;;;17.13;2.08;;;;;;;12.72;61.26;102465.00;5053180;28;20029;-72
2022/05/28 07:36:15;;;;;;;8.10;2.00;;;;;;;12.55;61.43;102468.88;5053889;28;20226;-72
2022/05/28 07:38:42;;;;;;;13.32;2.00;;;;;;;12.42;63.32;102460.06;5053579;28;20033;-72
2022/05/28 07:41:11;;;;;;;11.32;1.60;;;;;;;12.31;63.63;102461.69;5052755;28;20056;-72
2022/05/28 07:43:37;;;;;;;10.75;1.50;;;;;;;12.31;63.16;102467.03;5053107;28;20028;-72
2022/05/28 07:46:03;;;;;;;8.93;1.67;;;;;;;12.56;61.55;102464.41;5053200;28;20033;-71
2022/05/28 07:48:29;;;;;;;5.82;1.70;;;;;;;12.77;60.94;102461.97;5053146;28;20036;-72
2022/05/28 07:50:54;;;;;;;10.65;1.83;;;;;;;12.97;61.14;102468.50;5053108;28;20424;-72
2022/05/28 07:53:19;;;;;;;13.18;1.80;;;;;;;12.79;60.74;102463.53;5053070;28;20531;-71
2022/05/28 07:55:45;;;;;;;6.38;1.90;;;;;;;12.73;60.00;102472.03;5053183;28;20029;-72
2022/05/28 07:58:15;;;;;;;9.75;1.70;;;;;;;12.88;59.64;102460.22;5052702;28;20047;-72
2022/05/28 08:00:46;;;;;;;16.27;1.83;;;;;;;13.17;57.58;102462.50;5052442;28;20036;-72
2022/05/28 08:03:13;;;;;;;13.65;1.70;;;;;;;13.48;57.25;102460.19;5053126;28;20465;-72
2022/05/28 08:05:42;;;;;;;9.98;2.05;;;;;;;13.87;56.22;102462.56;5051865;28;20115;-72
2022/05/28 08:08:08;;;;;;;9.45;2.10;;;;;;;14.26;56.44;102452.31;5052829;28;20051;-72
2022/05/28 08:10:34;;;;;;;8.27;1.90;;;;;;;14.65;53.80;102460.75;5052712;28;20072;-72
2022/05/28 08:13:07;;;;;;;11.63;1.63;;;;;;;14.74;52.38;102465.34;5056787;28;20441;-72
2022/05/28 08:15:34;;;;;;;6.40;1.50;;;;;;;14.56;53.30;102458.81;5057575;28;20190;-72
2022/05/28 08:18:00;;;;;;;11.88;1.92;;;;;;;14.63;53.45;102457.38;5057168;28;20115;-72
2022/05/28 08:23:18;;;;;;;13.60;2.80;;;;;;;14.46;53.71;102454.22;5048060;28;20373;-73
2022/05/28 08:25:45;;;;;;;11.70;2.10;;;;;;;14.58;53.86;102457.69;5056433;28;20033;-73
2022/05/28 08:28:12;;;;;;;17.13;2.22;;;;;;;14.49;54.01;102461.13;5056559;28;20041;-72
2022/05/28 08:30:39;;;;;;;10.70;1.80;;;;;;;14.25;54.25;102463.97;5056002;28;20035;-72
2022/05/28 08:33:08;;;;;;;11.88;2.13;;;;;;;13.99;56.93;102461.56;5056320;28;20098;-72
2022/05/28 08:35:34;;;;;;;11.18;1.88;;;;;;;13.99;57.58;102463.38;5056077;28;20032;-72
2022/05/28 08:38:09;;;;;;;15.00;2.45;;;;;;;14.32;57.47;102461.66;5054773;28;20033;-73
2022/05/28 08:40:43;;;;;;;9.90;1.80;;;;;;;14.47;56.25;102468.44;5055979;28;20417;-73
2022/05/28 08:43:11;;;;;;;9.43;2.10;;;;;;;14.60;56.57;102471.81;5056652;28;20045;-73
2022/05/28 08:45:37;;;;;;;11.55;2.35;;;;;;;14.90;56.49;102475.66;5055902;28;20094;-72
2022/05/28 08:48:03;;;;;;;8.52;2.22;;;;;;;15.04;55.27;102477.19;5055030;28;20123;-72
2022/05/28 08:50:30;;;;;;;6.47;1.73;;;;;;;14.92;55.12;102475.53;5056026;28;20045;-71
2022/05/28 08:52:58;;;;;;;12.27;2.15;;;;;;;14.41;60.38;102482.34;5054556;28;20041;-72
2022/05/28 08:55:27;;;;;;;11.10;2.15;;;;;;;14.12;62.28;102480.16;5055852;28;20029;-73
2022/05/28 08:58:13;;;;;;;11.32;1.90;;;;;;;13.53;64.69;102478.56;5054466;28;20048;-74
2022/05/28 09:00:43;;;;;;;16.65;2.53;;;;;;;13.24;65.51;102481.59;5056307;28;20469;-73
2022/05/28 09:03:22;;;;;;;10.88;2.33;;;;;;;13.39;64.82;102482.25;5056375;28;20110;-73
2022/05/28 09:05:56;;;;;;;9.15;1.80;;;;;;;14.02;63.61;102477.38;5056107;28;20041;-74
2022/05/28 09:08:28;;;;;;;10.95;1.90;;;;;;;16.76;55.88;102479.25;5055523;28;20548;-73
2022/05/28 09:10:56;;;;;;;13.57;2.55;;;;;;;18.28;47.06;102472.16;5055656;28;20461;-73
2022/05/28 09:13:35;;;;;;;7.78;1.95;;;;;;;19.25;42.78;102477.88;5054197;28;20071;-73
2022/05/28 09:16:02;;;;;;;8.90;2.00;;;;;;;20.34;41.21;102471.06;5055634;28;20055;-72
2022/05/28 09:18:36;;;;;;;8.80;1.75;;;;;;;21.47;39.44;102470.47;5056119;28;20033;-73
2022/05/28 09:21:03;;;;;;;12.68;2.03;;;;;;;21.88;35.84;102466.84;5055657;28;20033;-74
2022/05/28 09:23:43;;;;;;;10.23;1.90;;;;;;;20.79;36.71;102468.97;5055276;28;20039;-73
2022/05/28 09:26:09;;;;;;;13.98;2.22;;;;;;;19.05;40.63;102470.94;5055339;28;20461;-74
2022/05/28 09:28:54;;;;;;;12.57;2.65;;;;;;;18.10;42.75;102469.44;5056021;28;20029;-73
2022/05/28 09:31:35;;;;;;;5.95;1.70;;;;;;;19.10;41.49;102466.78;5055785;28;20033;-72
2022/05/28 09:34:06;;;;;;;7.78;2.35;;;;;;;19.06;40.13;102475.34;5055068;28;20033;-73
2022/05/28 09:36:37;;;;;;;;;;;;;;;19.43;40.51;102479.69;5054748;28;20123;-73
2022/05/28 09:39:29;;;;;;;9.02;1.88;;;;;;;20.06;38.16;102475.84;5054906;28;20383;-74
2022/05/28 09:42:28;;;;;;;13.77;2.33;;;;;;;20.36;37.12;102469.03;5054662;28;20120;-73
2022/05/28 09:45:15;;;;;;;5.95;1.60;;;;;;;20.16;38.21;102475.72;5054958;28;20111;-75
2022/05/28 09:47:50;;;;;;;11.80;2.13;;;;;;;21.03;35.77;102470.84;5054943;28;20032;-74
2022/05/28 09:50:30;;;;;;;22.42;1.80;;;;;;;22.04;32.81;102470.53;5054936;28;20021;-74
2022/05/28 09:56:01;;;;;;;7.20;1.60;;;;;;;22.41;32.68;102463.56;5055420;28;20086;-74
2022/05/28 09:58:31;;;;;;;6.43;1.73;;;;;;;22.21;33.73;102460.44;5054718;28;20091;-73
2022/05/28 10:01:06;;;;;;;7.88;1.75;;;;;;;21.52;35.05;102459.16;5054629;28;20325;-72
2022/05/28 10:06:19;;;;;;;10.93;2.08;;;;;;;18.81;38.87;102464.28;5054599;28;20098;-72
2022/05/28 10:08:44;;;;;;;9.38;1.85;;;;;;;20.06;35.71;102467.75;5053130;28;20472;-73
2022/05/28 10:11:15;;;;;;;4.50;1.27;;;;;;;21.49;32.93;102462.19;5054495;28;20040;-73
2022/05/28 10:13:46;;;;;;;5.10;1.52;;;;;;;21.74;33.60;102460.28;5054766;28;20029;-73
2022/05/28 10:16:17;;;;;;;8.35;1.70;;;;;;;21.70;32.87;102458.94;5055208;28;20036;-73
2022/05/28 10:18:55;;;;;;;4.73;1.57;;;;;;;22.01;31.83;102460.88;5054025;28;20377;-74
2022/05/28 10:21:29;;;;;;;5.43;1.50;;;;;;;21.64;32.18;102467.75;5054649;28;20400;-73
2022/05/28 10:23:59;;;;;;;11.20;1.70;;;;;;;19.48;34.90;102467.41;5054295;28;20472;-73
2022/05/28 10:26:30;;;;;;;9.65;1.75;;;;;;;19.61;36.76;102468.84;5054055;28;20032;-73
2022/05/28 10:29:04;;;;;;;9.95;1.90;;;;;;;19.89;36.16;102458.72;5054481;28;20039;-73
2022/05/28 10:31:32;;;;;;;5.85;1.90;;;;;;;20.36;37.48;102460.06;5053662;28;20033;-73
2022/05/28 10:33:58;;;;;;;8.25;1.92;;;;;;;20.65;37.23;102450.69;5053380;28;20033;-73
2022/05/28 10:36:28;;;;;;;11.50;2.35;;;;;;;19.89;37.30;102462.25;5053828;28;20029;-74
2022/05/28 10:39:06;;;;;;;6.03;1.83;;;;;;;20.20;36.60;102459.03;5053865;28;20389;-73
2022/05/28 10:41:33;;;;;;;7.07;3.17;;;;;;;20.40;35.83;102454.16;5054967;28;20055;-73
2022/05/28 10:43:59;;;;;;;10.48;1.75;;;;;;;20.57;34.18;102462.31;5053761;28;20029;-74
2022/05/28 10:46:36;;;;;;;7.63;1.55;;;;;;;19.73;35.30;102451.34;5054127;28;20037;-73
2022/05/28 10:49:14;;;;;;;12.77;2.05;;;;;;;20.10;34.31;102460.19;5054109;28;20029;-74
2022/05/28 10:51:56;;;;;;;7.43;1.40;;;;;;;18.84;37.41;102455.94;5053851;28;20124;-73
2022/05/28 10:54:30;;;;;;;9.48;1.83;;;;;;;18.80;39.79;102454.53;5053652;28;20025;-72
2022/05/28 10:57:34;;;;;;;7.85;1.90;;;;;;;18.12;40.42;102467.47;5053698;28;20036;-73
2022/05/28 11:00:02;;;;;;;6.13;1.60;;;;;;;18.84;38.67;102464.84;5053497;28;20103;-73
2022/05/28 11:02:51;;;;;;;5.55;1.50;;;;;;;19.80;36.47;102463.25;5053775;28;20032;-72
2022/05/28 11:05:28;;;;;;;10.93;2.03;;;;;;;19.81;36.55;102466.78;5053372;28;20040;-74
2022/05/28 11:08:08;;;;;;;7.75;1.63;;;;;;;19.17;37.69;102467.03;5053559;28;20025;-73
2022/05/28 11:10:52;;;;;;;7.78;1.98;;;;;;;19.40;37.81;102448.44;5053996;28;20078;-73
2022/05/28 11:13:36;;;;;;;11.00;2.03;;;;;;;20.33;36.44;102455.88;5053489;28;20049;-74
2022/05/28 11:16:23;;;;;;;14.05;1.80;;;;;;;20.32;35.50;102453.28;5053875;28;20463;-74
2022/05/28 11:19:06;;;;;;;7.20;1.70;;;;;;;19.10;37.71;102469.47;5053419;28;20025;-74
2022/05/28 11:21:38;;;;;;;11.68;2.00;;;;;;;18.92;39.26;102458.72;5052425;28;20416;-73
2022/05/28 11:24:14;;;;;;;8.10;2.00;;;;;;;19.69;39.22;102456.22;5052485;28;20033;-73
2022/05/28 11:27:02;;;;;;;8.48;1.63;;;;;;;19.90;36.51;102452.31;5053116;28;20542;-73
2022/05/28 11:29:39;;;;;;;9.35;1.98;;;;;;;19.53;39.24;102448.03;5053103;28;20040;-73
2022/05/28 11:32:15;;;;;;;13.32;2.38;;;;;;;18.77;39.20;102447.59;5053354;28;20033;-74
2022/05/28 11:34:51;;;;;;;7.32;1.77;;;;;;;18.66;38.64;102443.28;5053800;28;20055;-72
2022/05/28 11:37:31;;;;;;;7.55;1.80;;;;;;;18.44;41.25;102455.34;5053090;28;20033;-73
2022/05/28 11:40:10;;;;;;;9.13;1.80;;;;;;;19.77;38.68;102444.63;5052770;28;20083;-72
2022/05/28 11:43:07;;;;;;;5.47;1.35;;;;;;;19.56;37.94;102447.72;5051891;28;20037;-73